Time;durP1;ratioP1;P1;durP2;ratioP2;P2;SDS_P1;SDS_P2;PMS_P1;PMS_P2;Temp;Humidity;BMP_temperature;BMP_pressure;BME280_temperature;BME280_humidity;BME280_pressure;Samples;Min_cycle;Max_cycle;Signal;HPM_P1;HPM_P2
2023/07/15 00:01:14;;;;;;;4.35;2.92;;;;;;;24.76;46.82;100560.00;5027650;28;20419;-86
2023/07/15 00:03:40;;;;;;;3.42;2.80;;;;;;;24.85;46.80;100566.69;5045233;28;20048;-87
2023/07/15 00:06:08;;;;;;;4.20;2.95;;;;;;;24.85;46.81;100562.16;5028896;28;20029;-87
2023/07/15 00:08:33;;;;;;;3.25;2.78;;;;;;;24.80;46.97;100559.34;5029950;28;20033;-88
2023/07/15 00:11:00;;;;;;;4.13;3.10;;;;;;;24.83;47.19;100552.78;5019258;28;20038;-85
2023/07/15 00:13:26;;;;;;;3.72;2.92;;;;;;;24.72;46.81;100533.00;5035200;28;20059;-86
2023/07/15 00:15:53;;;;;;;3.10;2.60;;;;;;;24.70;46.84;100525.22;5014804;28;20049;-87
2023/07/15 00:18:20;;;;;;;4.65;2.50;;;;;;;24.77;46.72;100540.31;5035283;28;20071;-86
2023/07/15 00:20:46;;;;;;;4.93;2.90;;;;;;;24.68;47.12;100526.47;5034689;28;20724;-87
2023/07/15 00:23:22;;;;;;;4.18;3.00;;;;;;;24.77;47.22;100529.66;5049164;28;20045;-86
2023/07/15 00:25:50;;;;;;;5.53;3.00;;;;;;;24.75;47.08;100529.06;5046133;28;20022;-85
2023/07/15 00:28:17;;;;;;;3.72;2.75;;;;;;;24.74;47.07;100520.28;5033737;28;20037;-88
2023/07/15 00:30:44;;;;;;;3.65;2.55;;;;;;;24.76;47.14;100528.03;5035049;28;20510;-86
2023/07/15 00:33:14;;;;;;;3.85;3.03;;;;;;;24.70;46.86;100503.09;5033589;28;20033;-86
2023/07/15 00:35:41;;;;;;;4.28;2.90;;;;;;;24.68;46.83;100513.97;5034107;28;20086;-87
2023/07/15 00:38:10;;;;;;;5.13;2.75;;;;;;;24.70;47.00;100492.47;5002548;28;20036;-86
2023/07/15 00:40:44;;;;;;;3.55;2.63;;;;;;;24.76;47.09;100506.72;5051725;28;20042;-86
2023/07/15 00:43:47;;;;;;;3.30;2.67;;;;;;;24.74;47.04;100498.97;5034542;28;20156;-87
2023/07/15 00:46:19;;;;;;;3.42;2.85;;;;;;;24.73;47.01;100496.53;5050386;28;20038;-85
2023/07/15 00:49:24;;;;;;;5.72;3.10;;;;;;;24.69;46.89;100475.66;5045502;28;21176;-86
2023/07/15 00:52:12;;;;;;;3.20;2.50;;;;;;;24.62;47.11;100469.59;5036522;28;20041;-87
2023/07/15 00:54:48;;;;;;;3.80;2.83;;;;;;;24.67;46.88;100472.41;5047160;28;20265;-87
2023/07/15 00:57:17;;;;;;;3.80;2.88;;;;;;;24.61;47.21;100469.84;5045149;28;20042;-88
2023/07/15 00:59:45;;;;;;;3.15;2.70;;;;;;;24.63;47.40;100471.22;5026637;28;20132;-87
2023/07/15 01:02:13;;;;;;;3.60;2.72;;;;;;;24.62;47.27;100458.16;5035177;28;20057;-88
2023/07/15 01:04:38;;;;;;;3.40;2.67;;;;;;;24.67;47.28;100468.94;5023339;28;21749;-88
2023/07/15 01:07:07;;;;;;;3.85;3.00;;;;;;;24.63;47.23;100457.94;5035326;28;20029;-86
2023/07/15 01:09:35;;;;;;;4.40;2.88;;;;;;;24.66;47.01;100462.81;5015354;28;20574;-87
2023/07/15 01:12:03;;;;;;;5.47;3.05;;;;;;;24.66;47.14;100448.69;5034064;28;20034;-86
2023/07/15 01:14:29;;;;;;;3.58;2.70;;;;;;;24.59;47.08;100445.25;5033696;28;20060;-86
2023/07/15 01:16:54;;;;;;;3.47;2.58;;;;;;;24.65;47.14;100449.72;5033407;28;20036;-87
2023/07/15 01:19:20;;;;;;;3.67;3.00;;;;;;;24.64;47.11;100445.44;5031508;28;20041;-88
2023/07/15 01:21:50;;;;;;;3.50;2.55;;;;;;;24.59;47.18;100437.25;5030382;28;20057;-87
2023/07/15 01:24:17;;;;;;;5.93;2.80;;;;;;;24.63;47.29;100449.13;5033997;28;20048;-87
2023/07/15 01:26:43;;;;;;;4.43;2.88;;;;;;;24.62;47.03;100445.66;5028741;28;20034;-87
2023/07/15 01:29:09;;;;;;;3.22;2.63;;;;;;;24.60;47.10;100452.22;5033536;28;20123;-87
2023/07/15 01:31:34;;;;;;;4.13;2.65;;;;;;;24.59;47.12;100448.72;5016291;28;20041;-87
2023/07/15 01:34:00;;;;;;;3.00;2.60;;;;;;;24.52;47.02;100426.69;5032291;28;20037;-88
2023/07/15 01:36:26;;;;;;;3.92;2.80;;;;;;;24.47;47.07;100415.91;5015233;28;20041;-87
2023/07/15 01:38:52;;;;;;;2.92;2.55;;;;;;;24.46;47.22;100414.28;5031293;28;20037;-87
2023/07/15 01:41:18;;;;;;;3.28;2.70;;;;;;;24.60;46.98;100442.41;5045886;28;20063;-87
2023/07/15 01:43:44;;;;;;;3.53;2.70;;;;;;;24.61;46.89;100437.88;5035006;28;20431;-87
2023/07/15 01:46:09;;;;;;;3.70;2.80;;;;;;;24.58;47.30;100433.78;5049081;28;20670;-87
2023/07/15 01:48:35;;;;;;;3.50;2.95;;;;;;;24.60;46.88;100430.94;5043986;28;20042;-87
2023/07/15 01:51:01;;;;;;;4.25;2.70;;;;;;;24.52;46.97;100425.88;5037680;28;20199;-87
2023/07/15 01:53:26;;;;;;;3.15;2.55;;;;;;;24.52;46.78;100421.38;5051614;28;20053;-87
2023/07/15 01:55:52;;;;;;;3.20;2.70;;;;;;;24.55;46.84;100412.94;5010219;28;20041;-87
2023/07/15 01:58:17;;;;;;;3.78;2.40;;;;;;;24.49;46.76;100394.38;5017402;28;20041;-87
2023/07/15 02:00:43;;;;;;;3.00;2.55;;;;;;;24.58;46.94;100403.69;5030576;28;20528;-87
2023/07/15 02:03:09;;;;;;;3.38;2.47;;;;;;;24.55;46.99;100406.81;5027700;28;20046;-87
2023/07/15 02:05:35;;;;;;;3.30;2.70;;;;;;;24.57;46.79;100415.38;5049996;28;20495;-87
2023/07/15 02:08:00;;;;;;;3.38;2.70;;;;;;;24.56;46.78;100414.56;5031441;28;20038;-87
2023/07/15 02:10:31;;;;;;;4.50;2.50;;;;;;;24.53;46.73;100400.88;5032048;28;20037;-87
2023/07/15 02:12:57;;;;;;;3.53;3.10;;;;;;;24.57;46.77;100407.38;5032288;28;20496;-88
2023/07/15 02:15:22;;;;;;;4.13;3.00;;;;;;;24.50;46.63;100396.81;5033978;28;20053;-88
2023/07/15 02:17:48;;;;;;;3.75;2.70;;;;;;;24.54;46.60;100407.84;5015100;28;20041;-88
2023/07/15 02:20:15;;;;;;;3.15;2.50;;;;;;;24.51;46.45;100394.97;5031206;28;20494;-87
2023/07/15 02:22:41;;;;;;;2.95;2.58;;;;;;;24.54;46.62;100408.66;5032404;28;20045;-86
2023/07/15 02:25:07;;;;;;;4.25;2.88;;;;;;;24.50;46.41;100396.81;5031385;28;20113;-87
2023/07/15 02:27:33;;;;;;;3.22;2.67;;;;;;;24.55;46.49;100401.47;5043861;28;20040;-86
2023/07/15 02:29:59;;;;;;;3.72;2.85;;;;;;;24.57;46.63;100394.91;5010730;28;20041;-87
2023/07/15 02:32:39;;;;;;;4.13;3.00;;;;;;;24.55;46.26;100398.81;5033444;28;20100;-86
2023/07/15 02:35:10;;;;;;;4.60;2.92;;;;;;;24.53;46.63;100391.06;5048607;28;20037;-86
2023/07/15 02:37:37;;;;;;;4.43;3.30;;;;;;;24.51;46.63;100387.00;5032717;28;20172;-86
2023/07/15 02:40:06;;;;;;;3.47;2.55;;;;;;;24.53;46.27;100382.25;5025457;28;20029;-87
2023/07/15 02:42:33;;;;;;;3.72;2.50;;;;;;;24.51;46.59;100382.47;5048584;28;20152;-86
2023/07/15 02:45:00;;;;;;;2.80;2.60;;;;;;;24.52;46.39;100380.63;5030807;28;20075;-86
2023/07/15 02:47:26;;;;;;;3.03;2.65;;;;;;;24.51;46.36;100382.47;5042759;28;20472;-85
2023/07/15 02:49:52;;;;;;;4.38;2.88;;;;;;;24.51;46.32;100376.34;5035676;28;20044;-86
2023/07/15 02:52:18;;;;;;;2.92;2.38;;;;;;;24.50;46.26;100372.88;5046354;28;20042;-86
2023/07/15 02:54:43;;;;;;;3.38;2.70;;;;;;;24.54;46.33;100374.03;5033722;28;20033;-86
2023/07/15 02:57:09;;;;;;;3.03;2.65;;;;;;;24.54;46.16;100378.56;5017481;28;20037;-85
2023/07/15 02:59:34;;;;;;;3.80;2.33;;;;;;;24.50;46.01;100372.88;5014204;28;20045;-85
2023/07/15 03:02:00;;;;;;;4.80;2.45;;;;;;;24.52;46.32;100370.00;5014064;28;20061;-85
2023/07/15 03:04:27;;;;;;;3.65;2.70;;;;;;;24.49;46.08;100359.78;5044223;28;20049;-85
2023/07/15 03:06:55;;;;;;;3.83;2.65;;;;;;;24.48;46.17;100368.81;5027258;28;20335;-85
2023/07/15 03:09:21;;;;;;;3.42;2.70;;;;;;;24.44;46.14;100362.31;5030820;28;20493;-85
2023/07/15 03:11:46;;;;;;;4.00;2.60;;;;;;;24.46;46.10;100370.88;5026481;28;20599;-86
2023/07/15 03:14:12;;;;;;;3.42;2.63;;;;;;;24.41;46.08;100359.03;5032142;28;20041;-85
2023/07/15 03:16:39;;;;;;;5.22;2.70;;;;;;;24.44;46.26;100370.28;5033292;28;20037;-85
2023/07/15 03:19:05;;;;;;;4.90;2.65;;;;;;;24.48;46.62;100376.78;5031365;28;20484;-85
2023/07/15 03:21:30;;;;;;;3.88;2.67;;;;;;;24.49;46.23;100375.75;5010889;28;20060;-86
2023/07/15 03:23:56;;;;;;;2.80;2.30;;;;;;;24.50;46.08;100380.03;5013099;28;20038;-85
2023/07/15 03:26:21;;;;;;;2.78;2.50;;;;;;;24.49;46.02;100378.41;5030402;28;20040;-85
2023/07/15 03:28:47;;;;;;;4.47;2.85;;;;;;;24.49;46.29;100381.88;5032172;28;20045;-85
2023/07/15 03:31:12;;;;;;;2.80;2.50;;;;;;;24.49;46.09;100381.09;5036644;28;20028;-85
2023/07/15 03:33:38;;;;;;;5.55;2.58;;;;;;;24.44;46.07;100384.41;5047879;28;20057;-85
2023/07/15 03:36:04;;;;;;;2.67;2.30;;;;;;;24.39;46.01;100370.94;5031740;28;20037;-85
2023/07/15 03:38:29;;;;;;;3.17;2.80;;;;;;;24.47;45.95;100391.13;5029889;28;20041;-85
2023/07/15 03:40:55;;;;;;;4.00;2.80;;;;;;;24.41;46.07;100390.16;5037281;28;20573;-85
2023/07/15 03:43:21;;;;;;;3.40;2.40;;;;;;;24.43;46.01;100390.78;5030901;28;20050;-84
2023/07/15 03:45:46;;;;;;;3.17;2.65;;;;;;;24.44;45.90;100400.38;5032094;28;20507;-85
2023/07/15 03:48:12;;;;;;;3.53;2.75;;;;;;;24.44;45.94;100397.72;5033374;28;20040;-86
2023/07/15 03:50:37;;;;;;;2.92;2.40;;;;;;;24.44;46.06;100391.59;5036680;28;20041;-85
2023/07/15 03:53:03;;;;;;;3.55;2.55;;;;;;;24.44;46.14;100389.72;5017889;28;20190;-85
2023/07/15 03:55:29;;;;;;;3.65;2.53;;;;;;;24.42;45.95;100391.81;5054471;28;20060;-85
2023/07/15 03:57:55;;;;;;;3.08;2.50;;;;;;;24.41;46.14;100398.94;5035409;28;20037;-85
2023/07/15 04:00:21;;;;;;;3.70;2.38;;;;;;;24.44;45.98;100394.25;5034722;28;20049;-86
2023/07/15 04:02:49;;;;;;;2.70;2.47;;;;;;;24.37;46.08;100389.78;5032228;28;20056;-85
2023/07/15 04:05:15;;;;;;;2.95;2.47;;;;;;;24.37;45.93;100388.97;5036275;28;20041;-84
2023/07/15 04:07:40;;;;;;;4.57;2.63;;;;;;;24.37;46.12;100389.78;5036488;28;20030;-84
2023/07/15 04:10:06;;;;;;;4.00;2.38;;;;;;;24.37;46.12;100388.97;5053567;28;20033;-84
2023/07/15 04:12:32;;;;;;;2.50;2.30;;;;;;;24.44;45.90;100389.72;5033230;28;20064;-84
2023/07/15 04:14:58;;;;;;;3.85;2.42;;;;;;;24.43;46.05;100392.63;5020801;28;20392;-84
2023/07/15 04:17:23;;;;;;;3.20;2.47;;;;;;;24.41;46.04;100396.28;5044766;28;20530;-84
2023/07/15 04:19:49;;;;;;;2.58;2.33;;;;;;;24.42;46.30;100399.78;5036627;28;20053;-85
2023/07/15 04:22:14;;;;;;;3.67;2.80;;;;;;;24.44;46.18;100404.88;5051860;28;20037;-85
2023/07/15 04:24:40;;;;;;;3.25;2.50;;;;;;;24.42;46.16;100397.13;5036623;28;20049;-86
2023/07/15 04:27:05;;;;;;;2.92;2.35;;;;;;;24.33;46.11;100380.63;5036968;28;20391;-85
2023/07/15 04:29:31;;;;;;;3.10;2.35;;;;;;;24.35;45.99;100388.38;5013951;28;20408;-86
2023/07/15 04:31:57;;;;;;;3.05;2.50;;;;;;;24.34;46.12;100392.06;5035995;28;20041;-87
2023/07/15 04:34:22;;;;;;;3.15;2.20;;;;;;;24.39;46.01;100400.19;5034532;28;20117;-86
2023/07/15 04:36:48;;;;;;;3.53;2.50;;;;;;;24.39;46.02;100401.00;5036102;28;20068;-87
2023/07/15 04:39:14;;;;;;;2.75;2.30;;;;;;;24.39;46.30;100406.34;5037735;28;20045;-86
2023/07/15 04:41:39;;;;;;;3.80;2.40;;;;;;;24.33;46.00;100398.44;5046646;28;20073;-86
2023/07/15 04:44:05;;;;;;;3.50;2.60;;;;;;;24.39;46.05;100418.84;5019929;28;20054;-86
2023/07/15 04:46:31;;;;;;;4.07;2.42;;;;;;;24.39;46.03;100422.31;5034001;28;20037;-87
2023/07/15 04:48:56;;;;;;;2.47;2.28;;;;;;;24.36;46.19;100414.78;5036497;28;20041;-86
2023/07/15 04:51:22;;;;;;;2.25;2.05;;;;;;;24.39;46.02;100424.97;5032931;28;20044;-86
2023/07/15 04:53:47;;;;;;;3.15;2.60;;;;;;;24.31;46.04;100416.47;5033028;28;20423;-86
2023/07/15 04:56:13;;;;;;;2.55;2.28;;;;;;;24.34;45.95;100426.66;5032115;28;20052;-86
2023/07/15 04:58:38;;;;;;;3.45;2.40;;;;;;;24.40;46.17;100428.44;5035010;28;20042;-86
2023/07/15 05:01:04;;;;;;;3.70;2.50;;;;;;;24.32;45.93;100408.25;5040716;28;20064;-86
2023/07/15 05:03:30;;;;;;;4.00;2.35;;;;;;;24.41;46.06;100430.06;5055768;28;20092;-85
2023/07/15 05:05:56;;;;;;;3.10;2.33;;;;;;;24.35;46.12;100426.44;5031886;28;20168;-86
2023/07/15 05:08:22;;;;;;;3.05;2.60;;;;;;;24.39;46.29;100430.28;5037712;28;20034;-85
2023/07/15 05:10:48;;;;;;;3.42;2.30;;;;;;;24.40;46.02;100423.94;5056933;28;20045;-85
2023/07/15 05:13:15;;;;;;;4.05;2.50;;;;;;;24.41;45.93;100432.72;5038116;28;20033;-85
2023/07/15 05:15:41;;;;;;;3.78;2.80;;;;;;;24.41;46.17;100430.06;5042743;28;20048;-86
2023/07/15 05:18:08;;;;;;;3.65;2.50;;;;;;;24.41;46.10;100430.06;5023513;28;20037;-86
2023/07/15 05:20:34;;;;;;;2.92;2.50;;;;;;;24.38;46.12;100430.50;5034975;28;20121;-86
2023/07/15 05:23:03;;;;;;;3.45;2.58;;;;;;;24.37;46.08;100426.22;5038583;28;20048;-85
2023/07/15 05:25:30;;;;;;;4.15;2.30;;;;;;;24.35;46.19;100433.63;5030610;28;20069;-86
2023/07/15 05:27:57;;;;;;;3.13;2.42;;;;;;;24.40;46.19;100441.75;5035872;28;20033;-86
2023/07/15 05:30:23;;;;;;;2.70;2.25;;;;;;;24.43;46.23;100441.34;5045292;28;20072;-85
2023/07/15 05:32:49;;;;;;;2.70;2.40;;;;;;;24.43;45.87;100448.50;5034397;28;20480;-85
2023/07/15 05:35:14;;;;;;;3.13;2.55;;;;;;;24.42;46.28;100445.03;5033059;28;20033;-86
2023/07/15 05:37:40;;;;;;;2.72;2.42;;;;;;;24.41;46.02;100448.69;5034286;28;20034;-85
2023/07/15 05:40:09;;;;;;;3.50;2.30;;;;;;;24.41;46.20;100435.41;5033223;28;20129;-86
2023/07/15 05:42:38;;;;;;;3.42;2.33;;;;;;;24.42;46.17;100450.34;5036478;28;20046;-87
2023/07/15 05:45:04;;;;;;;3.63;2.58;;;;;;;24.42;46.02;100453.03;5037871;28;20472;-87
2023/07/15 05:47:30;;;;;;;2.55;2.20;;;;;;;24.41;46.15;100444.19;5035752;28;20045;-87
2023/07/15 05:49:56;;;;;;;3.35;2.50;;;;;;;24.40;46.21;100447.06;5018446;28;20037;-87
2023/07/15 05:52:21;;;;;;;2.40;2.20;;;;;;;24.37;46.04;100436.88;5036014;28;20180;-86
2023/07/15 05:54:47;;;;;;;3.45;2.33;;;;;;;24.44;45.93;100455.47;5018011;28;20033;-87
2023/07/15 05:57:12;;;;;;;2.85;2.17;;;;;;;24.38;45.89;100457.94;5034111;28;20361;-87
2023/07/15 05:59:38;;;;;;;4.05;2.55;;;;;;;24.44;46.11;100458.13;5016914;28;20045;-86
2023/07/15 06:02:04;;;;;;;2.42;2.08;;;;;;;24.43;46.06;100451.97;5028450;28;20107;-87
2023/07/15 06:04:29;;;;;;;4.20;2.70;;;;;;;24.43;46.08;100459.16;5032799;28;20052;-86
2023/07/15 06:06:55;;;;;;;2.75;2.50;;;;;;;24.44;46.00;100460.78;5031899;28;20038;-86
2023/07/15 06:09:20;;;;;;;2.80;2.47;;;;;;;24.43;46.20;100467.13;5035044;28;20060;-86
2023/07/15 06:11:46;;;;;;;2.53;2.28;;;;;;;24.45;46.06;100476.53;5038246;28;20045;-87
2023/07/15 06:14:11;;;;;;;3.13;2.38;;;;;;;24.37;46.19;100458.16;5033030;28;20044;-86
2023/07/15 06:16:37;;;;;;;3.03;2.63;;;;;;;24.44;46.14;100466.09;5019501;28;20060;-88
2023/07/15 06:19:02;;;;;;;2.47;2.25;;;;;;;24.46;46.21;100469.34;5035437;28;20045;-87
2023/07/15 06:21:28;;;;;;;3.30;2.10;;;;;;;24.44;46.18;100453.59;5032780;28;20687;-87
2023/07/15 06:23:54;;;;;;;2.63;2.17;;;;;;;24.48;46.19;100464.63;5032243;28;20547;-86
2023/07/15 06:26:19;;;;;;;4.55;2.72;;;;;;;24.49;46.13;100458.28;5037146;28;20033;-88
2023/07/15 06:28:45;;;;;;;2.58;2.25;;;;;;;24.51;45.99;100464.19;5030149;28;20042;-87
2023/07/15 06:31:10;;;;;;;3.20;2.47;;;;;;;24.51;46.21;100462.34;5020285;28;20442;-87
2023/07/15 06:33:36;;;;;;;3.22;2.30;;;;;;;24.53;46.28;100460.25;5039026;28;20021;-87
2023/07/15 06:36:03;;;;;;;3.13;2.47;;;;;;;24.54;46.05;100469.88;5033247;28;20038;-87
2023/07/15 06:38:29;;;;;;;3.70;2.50;;;;;;;24.55;46.22;100465.38;5036241;28;20044;-86
2023/07/15 06:40:58;;;;;;;2.38;2.17;;;;;;;24.56;45.98;100462.47;5033935;28;20033;-86
2023/07/15 06:43:23;;;;;;;3.60;2.53;;;;;;;24.54;46.11;100461.88;5032734;28;20043;-85
2023/07/15 06:45:49;;;;;;;2.67;2.40;;;;;;;24.54;46.17;100467.22;5021640;28;20040;-86
2023/07/15 06:48:17;;;;;;;3.75;2.22;;;;;;;24.59;46.13;100477.19;5019501;28;20041;-86
2023/07/15 06:50:43;;;;;;;2.58;2.13;;;;;;;24.60;46.10;100462.88;5032547;28;20069;-87
2023/07/15 06:53:09;;;;;;;2.78;2.30;;;;;;;24.60;46.22;100469.00;5035621;28;20045;-88
2023/07/15 06:55:35;;;;;;;3.75;2.50;;;;;;;24.61;46.21;100465.31;5035159;28;20073;-87
2023/07/15 06:58:02;;;;;;;3.65;2.45;;;;;;;24.64;45.98;100470.19;5032099;28;20050;-88
2023/07/15 07:00:28;;;;;;;3.35;2.30;;;;;;;24.65;46.08;100469.16;5037473;28;20036;-89
2023/07/15 07:02:54;;;;;;;3.30;2.60;;;;;;;24.66;46.01;100465.47;5035667;28;20045;-87
2023/07/15 07:05:19;;;;;;;5.35;2.70;;;;;;;24.67;46.13;100468.94;5049496;28;20037;-86
2023/07/15 07:07:46;;;;;;;3.45;2.63;;;;;;;24.67;46.03;100468.94;5038957;28;20821;-84
2023/07/15 07:10:12;;;;;;;2.90;2.30;;;;;;;24.75;46.23;100465.16;5039779;28;20044;-85
2023/07/15 07:12:38;;;;;;;5.75;2.75;;;;;;;24.76;46.34;100456.94;5031524;28;20802;-86
2023/07/15 07:15:04;;;;;;;2.53;2.10;;;;;;;24.78;46.34;100465.56;5052621;28;20162;-84
2023/07/15 07:17:29;;;;;;;4.45;2.45;;;;;;;24.79;46.46;100464.53;5033907;28;20037;-85
2023/07/15 07:19:55;;;;;;;4.07;2.55;;;;;;;24.84;46.55;100463.84;5036219;28;20049;-88
2023/07/15 07:22:20;;;;;;;2.85;2.25;;;;;;;24.91;46.25;100473.38;5036492;28;20057;-89
2023/07/15 07:24:46;;;;;;;2.38;2.17;;;;;;;24.86;46.04;100470.59;5035640;28;20037;-89
2023/07/15 07:27:12;;;;;;;3.20;2.00;;;;;;;24.93;46.08;100467.84;5036219;28;20025;-88
2023/07/15 07:29:38;;;;;;;3.45;2.33;;;;;;;24.93;46.08;100473.16;5034931;28;20037;-88
2023/07/15 07:32:05;;;;;;;5.03;2.45;;;;;;;24.99;46.00;100469.63;5036469;28;20119;-88
2023/07/15 07:34:32;;;;;;;2.92;2.20;;;;;;;25.00;46.08;100472.09;5038148;28;20041;-88
2023/07/15 07:36:57;;;;;;;3.88;2.10;;;;;;;24.98;46.14;100471.47;5036120;28;20101;-88
2023/07/15 07:39:23;;;;;;;3.75;2.38;;;;;;;25.04;46.44;100467.13;5053570;28;20052;-90
2023/07/15 07:41:48;;;;;;;2.50;2.10;;;;;;;25.03;46.68;100472.69;5043584;28;20049;-89
2023/07/15 07:44:14;;;;;;;2.88;2.25;;;;;;;25.08;46.37;100486.97;5039050;28;20049;-88
2023/07/15 07:46:39;;;;;;;4.78;2.30;;;;;;;25.05;46.54;100475.94;5038812;28;20060;-90
2023/07/15 07:49:05;;;;;;;5.35;3.05;;;;;;;25.09;46.43;100475.25;5056085;28;20257;-88
2023/07/15 07:51:30;;;;;;;4.90;2.90;;;;;;;25.17;46.56;100482.97;5038864;28;20041;-87
2023/07/15 07:53:56;;;;;;;4.03;2.30;;;;;;;25.23;46.48;100494.56;5043051;28;20110;-88
2023/07/15 07:56:23;;;;;;;4.25;2.40;;;;;;;25.22;46.64;100488.44;5053502;28;20045;-87
2023/07/15 07:58:54;;;;;;;4.57;2.55;;;;;;;25.30;46.25;100490.78;5041830;28;20025;-89
2023/07/15 08:01:21;;;;;;;5.45;2.33;;;;;;;25.33;46.29;100486.88;5032907;28;20816;-88
2023/07/15 08:03:47;;;;;;;2.67;2.38;;;;;;;25.37;46.18;100488.06;5055994;28;20060;-88
2023/07/15 08:06:12;;;;;;;3.72;2.42;;;;;;;25.39;46.27;100491.31;5048292;28;20038;-89
2023/07/15 08:08:38;;;;;;;4.93;2.40;;;;;;;25.40;45.90;100497.44;5033268;28;20049;-85
2023/07/15 08:11:03;;;;;;;3.38;2.85;;;;;;;25.43;45.99;100503.13;5040404;28;20041;-85
2023/07/15 08:13:29;;;;;;;2.40;2.00;;;;;;;25.36;46.27;100493.63;5038831;28;20392;-86
2023/07/15 08:15:54;;;;;;;3.25;2.45;;;;;;;25.41;46.48;100507.06;5035531;28;20049;-89
2023/07/15 08:18:20;;;;;;;3.65;2.28;;;;;;;25.31;46.47;100488.94;5039047;28;20051;-86
2023/07/15 08:20:47;;;;;;;4.38;2.38;;;;;;;25.41;46.54;100502.56;5038286;28;20174;-89
2023/07/15 08:23:12;;;;;;;2.70;2.10;;;;;;;25.42;46.47;100503.38;5028105;28;20041;-88
2023/07/15 08:25:38;;;;;;;4.18;2.35;;;;;;;25.44;46.62;100510.09;5034099;28;20228;-88
2023/07/15 08:28:04;;;;;;;6.10;2.95;;;;;;;25.45;46.59;100522.38;5032776;28;20049;-88
2023/07/15 08:30:29;;;;;;;2.85;2.40;;;;;;;25.38;46.39;100513.66;5031651;28;20549;-86
2023/07/15 08:32:55;;;;;;;3.00;2.13;;;;;;;25.45;46.56;100525.06;5042508;28;21423;-89
2023/07/15 08:35:21;;;;;;;4.07;2.50;;;;;;;25.45;46.88;100530.38;5028001;28;20127;-88
2023/07/15 08:37:47;;;;;;;5.22;2.78;;;;;;;25.45;46.58;100538.38;5038956;28;20033;-85
2023/07/15 08:40:13;;;;;;;2.85;1.98;;;;;;;25.51;46.56;100534.03;5039650;28;20039;-87
2023/07/15 08:42:39;;;;;;;6.45;2.38;;;;;;;25.58;46.31;100524.88;5038720;28;20037;-88
2023/07/15 08:45:05;;;;;;;5.30;2.72;;;;;;;25.63;45.89;100524.22;5052150;28;20030;-89
2023/07/15 08:47:31;;;;;;;4.82;2.22;;;;;;;25.67;46.03;100521.91;5046512;28;20033;-88
2023/07/15 08:50:02;;;;;;;2.63;2.10;;;;;;;25.65;45.56;100523.97;5033553;28;20045;-88
2023/07/15 08:52:29;;;;;;;2.95;2.30;;;;;;;25.65;45.88;100524.78;5041240;28;20052;-88
2023/07/15 08:54:55;;;;;;;3.40;2.20;;;;;;;25.62;45.80;100514.59;5037090;28;20049;-88
2023/07/15 08:57:23;;;;;;;3.28;2.20;;;;;;;25.63;45.60;100521.53;5040771;28;20040;-88
2023/07/15 08:59:56;;;;;;;3.08;2.25;;;;;;;25.67;45.71;100528.03;5036009;28;20042;-88
2023/07/15 09:02:24;;;;;;;2.30;1.90;;;;;;;25.55;45.71;100512.00;5038239;28;20447;-88
2023/07/15 09:04:50;;;;;;;2.70;2.30;;;;;;;25.72;45.40;100522.09;5041151;28;20314;-87
2023/07/15 09:07:24;;;;;;;2.40;1.98;;;;;;;25.65;45.73;100507.97;5006112;28;20029;-88
2023/07/15 09:09:50;;;;;;;2.30;1.83;;;;;;;25.75;45.61;100530.44;5007647;28;20034;-88
2023/07/15 09:12:16;;;;;;;1.92;1.80;;;;;;;25.62;45.63;100506.59;5016399;28;20075;-88
2023/07/15 09:14:45;;;;;;;3.65;2.00;;;;;;;25.70;45.41;100524.16;5005965;28;20195;-88
2023/07/15 09:17:20;;;;;;;3.58;2.58;;;;;;;25.60;45.57;100514.00;5055849;28;20056;-88
2023/07/15 09:19:46;;;;;;;2.10;1.90;;;;;;;25.74;45.76;100520.81;5038038;28;20427;-88
2023/07/15 09:22:12;;;;;;;2.20;2.00;;;;;;;25.79;45.55;100533.47;5065228;28;20481;-88
2023/07/15 09:24:38;;;;;;;2.03;1.90;;;;;;;25.77;45.73;100544.38;5054384;28;20045;-88
2023/07/15 09:27:04;;;;;;;3.88;1.98;;;;;;;25.77;45.75;100539.03;5040387;28;20038;-89
2023/07/15 09:29:30;;;;;;;2.40;2.00;;;;;;;25.76;45.89;100532.06;5035182;28;20045;-89
2023/07/15 09:31:56;;;;;;;2.58;2.00;;;;;;;25.77;45.88;100532.88;5028283;28;20037;-89
2023/07/15 09:34:25;;;;;;;2.38;2.00;;;;;;;25.81;45.75;100524.19;5044192;28;20053;-88
2023/07/15 09:36:52;;;;;;;3.08;2.05;;;;;;;25.77;45.68;100523.03;5044955;28;20048;-88
2023/07/15 09:39:22;;;;;;;1.80;1.70;;;;;;;25.72;45.57;100524.75;5059341;28;20073;-88
2023/07/15 09:42:01;;;;;;;1.92;1.83;;;;;;;25.78;45.85;100534.50;5056819;28;20034;-89
2023/07/15 09:44:40;;;;;;;3.75;2.03;;;;;;;25.79;45.51;100546.81;5046466;28;20170;-89
2023/07/15 09:47:07;;;;;;;2.92;1.80;;;;;;;25.70;45.88;100538.31;5040360;28;20126;-89
2023/07/15 09:49:34;;;;;;;3.05;2.20;;;;;;;25.77;45.89;100552.38;5055052;28;20037;-88
2023/07/15 09:52:02;;;;;;;1.98;1.80;;;;;;;25.75;45.67;100558.97;5041626;28;20037;-88
2023/07/15 09:54:30;;;;;;;1.98;1.70;;;;;;;25.76;45.80;100569.41;5042031;28;20037;-88
2023/07/15 09:57:03;;;;;;;3.22;2.08;;;;;;;25.71;45.86;100547.13;5040506;28;20048;-88
2023/07/15 09:59:38;;;;;;;3.25;2.03;;;;;;;25.65;45.82;100555.97;5037105;28;20069;-88
2023/07/15 10:02:31;;;;;;;2.28;2.03;;;;;;;25.73;45.69;100553.06;5039297;28;20053;-87
2023/07/15 10:05:03;;;;;;;2.13;1.90;;;;;;;25.58;45.71;100543.56;5024085;28;20049;-88
2023/07/15 10:07:29;;;;;;;1.88;1.70;;;;;;;25.65;46.37;100553.31;5034353;28;20120;-89
2023/07/15 10:09:56;;;;;;;2.88;1.98;;;;;;;25.59;45.96;100534.50;5046886;28;20060;-88
2023/07/15 10:12:22;;;;;;;2.72;1.95;;;;;;;25.60;45.83;100530.00;5025215;28;20037;-88
2023/07/15 10:14:48;;;;;;;2.53;2.15;;;;;;;25.67;46.08;100556.56;5038804;28;20041;-88
2023/07/15 10:17:15;;;;;;;2.08;1.88;;;;;;;25.64;46.25;100560.50;5033810;28;20048;-89
2023/07/15 10:19:41;;;;;;;2.83;2.30;;;;;;;25.64;46.23;100563.16;5040572;28;20210;-88
2023/07/15 10:22:08;;;;;;;2.13;1.85;;;;;;;25.51;46.40;100540.16;5037481;28;20030;-88
2023/07/15 10:24:34;;;;;;;3.13;1.92;;;;;;;25.57;46.42;100544.59;5041318;28;20834;-88
2023/07/15 10:27:01;;;;;;;2.40;1.90;;;;;;;25.53;46.33;100527.44;5029394;28;20052;-89
2023/07/15 10:29:30;;;;;;;2.47;1.83;;;;;;;25.63;46.40;100542.88;5024364;28;20056;-88
2023/07/15 10:32:09;;;;;;;2.90;1.97;;;;;;;25.61;46.42;100545.75;5051660;28;20041;-88
2023/07/15 10:34:40;;;;;;;2.47;2.05;;;;;;;25.61;46.25;100536.97;5039942;28;20559;-89
2023/07/15 10:37:09;;;;;;;2.17;1.98;;;;;;;25.60;46.24;100548.66;5033831;28;20537;-87
2023/07/15 10:39:36;;;;;;;2.55;2.20;;;;;;;25.50;46.11;100532.41;5033868;28;20044;-87
2023/07/15 10:42:14;;;;;;;2.60;2.20;;;;;;;25.61;46.55;100547.63;5038297;28;20040;-87
2023/07/15 10:44:52;;;;;;;2.13;1.92;;;;;;;25.60;46.28;100548.66;5038524;28;20029;-88
2023/07/15 10:47:18;;;;;;;2.17;1.98;;;;;;;25.59;46.36;100545.19;5038130;28;20029;-87
2023/07/15 10:49:44;;;;;;;2.10;1.90;;;;;;;25.59;46.26;100547.84;5051288;28;20072;-89
2023/07/15 10:52:10;;;;;;;3.05;2.30;;;;;;;25.58;46.65;100546.22;5038385;28;20059;-89
2023/07/15 10:54:40;;;;;;;2.22;1.90;;;;;;;25.60;46.26;100554.00;5037677;28;20052;-90
2023/07/15 10:57:10;;;;;;;2.10;1.90;;;;;;;25.60;46.62;100544.13;5035463;28;20083;-95
2023/07/15 10:59:37;;;;;;;2.33;2.13;;;;;;;25.36;46.56;100504.28;5050233;28;20026;-89
2023/07/15 11:02:04;;;;;;;2.20;1.98;;;;;;;25.57;46.48;100522.44;5033732;28;20103;-88
2023/07/15 11:04:30;;;;;;;3.47;2.00;;;;;;;25.61;46.82;100547.63;5035602;28;20053;-84
2023/07/15 11:07:04;;;;;;;3.35;2.17;;;;;;;25.57;46.65;100543.78;5032101;28;20045;-85
2023/07/15 11:09:30;;;;;;;2.33;2.03;;;;;;;25.59;46.42;100534.50;5046979;28;20070;-85
2023/07/15 11:11:56;;;;;;;3.63;2.15;;;;;;;25.61;46.73;100529.78;5033648;28;20033;-84
2023/07/15 11:14:29;;;;;;;3.03;2.00;;;;;;;25.61;46.41;100532.44;5033721;28;20036;-84
2023/07/15 11:16:57;;;;;;;2.05;1.85;;;;;;;25.51;46.70;100504.69;5029838;28;20038;-84
2023/07/15 11:19:23;;;;;;;2.55;2.20;;;;;;;25.63;46.42;100521.53;5030406;28;20036;-83
2023/07/15 11:21:51;;;;;;;2.63;2.30;;;;;;;25.62;46.53;100533.25;5049014;28;20049;-84
2023/07/15 11:24:17;;;;;;;3.50;1.83;;;;;;;25.55;46.64;100513.88;5039180;28;20041;-84